sensor_id;sensor_type;location;lat;lon;timestamp;P1;durP1;ratioP1;P2;durP2;ratioP2
11481;SDS011;5797;51.662;6.748;2023-07-02T00:00:15;5.93;;;4.33;;
11481;SDS011;5797;51.662;6.748;2023-07-02T00:02:46;7.70;;;3.87;;
11481;SDS011;5797;51.662;6.748;2023-07-02T00:05:14;13.60;;;4.20;;
11481;SDS011;5797;51.662;6.748;2023-07-02T00:07:45;8.30;;;4.33;;
11481;SDS011;5797;51.662;6.748;2023-07-02T00:10:13;6.33;;;4.60;;
11481;SDS011;5797;51.662;6.748;2023-07-02T00:12:42;8.17;;;4.63;;
11481;SDS011;5797;51.662;6.748;2023-07-02T00:15:11;5.87;;;4.03;;
11481;SDS011;5797;51.662;6.748;2023-07-02T00:17:39;5.57;;;3.90;;
11481;SDS011;5797;51.662;6.748;2023-07-02T00:20:08;6.87;;;4.30;;
11481;SDS011;5797;51.662;6.748;2023-07-02T00:22:41;6.00;;;4.07;;
11481;SDS011;5797;51.662;6.748;2023-07-02T00:25:14;6.17;;;3.90;;
11481;SDS011;5797;51.662;6.748;2023-07-02T00:27:43;6.60;;;4.43;;
11481;SDS011;5797;51.662;6.748;2023-07-02T00:30:11;10.37;;;4.70;;
11481;SDS011;5797;51.662;6.748;2023-07-02T00:32:40;8.20;;;5.00;;
11481;SDS011;5797;51.662;6.748;2023-07-02T00:35:10;13.93;;;5.17;;
11481;SDS011;5797;51.662;6.748;2023-07-02T00:37:38;6.33;;;4.70;;
11481;SDS011;5797;51.662;6.748;2023-07-02T00:40:07;9.47;;;4.57;;
11481;SDS011;5797;51.662;6.748;2023-07-02T00:42:38;8.80;;;4.93;;
11481;SDS011;5797;51.662;6.748;2023-07-02T00:45:07;8.23;;;4.70;;
11481;SDS011;5797;51.662;6.748;2023-07-02T00:47:37;9.17;;;5.00;;
11481;SDS011;5797;51.662;6.748;2023-07-02T00:50:05;8.07;;;4.70;;
11481;SDS011;5797;51.662;6.748;2023-07-02T00:52:36;11.97;;;4.93;;
11481;SDS011;5797;51.662;6.748;2023-07-02T00:55:05;9.03;;;4.80;;
11481;SDS011;5797;51.662;6.748;2023-07-02T00:57:34;8.67;;;4.70;;
11481;SDS011;5797;51.662;6.748;2023-07-02T01:00:04;5.80;;;4.10;;
11481;SDS011;5797;51.662;6.748;2023-07-02T01:02:34;9.70;;;4.47;;
11481;SDS011;5797;51.662;6.748;2023-07-02T01:05:03;6.23;;;4.43;;
11481;SDS011;5797;51.662;6.748;2023-07-02T01:07:32;6.93;;;4.80;;
11481;SDS011;5797;51.662;6.748;2023-07-02T01:10:00;10.30;;;4.30;;
11481;SDS011;5797;51.662;6.748;2023-07-02T01:12:29;8.47;;;4.50;;
11481;SDS011;5797;51.662;6.748;2023-07-02T01:14:58;6.00;;;4.33;;
11481;SDS011;5797;51.662;6.748;2023-07-02T01:17:32;7.70;;;4.60;;
11481;SDS011;5797;51.662;6.748;2023-07-02T01:20:09;10.13;;;4.37;;
11481;SDS011;5797;51.662;6.748;2023-07-02T01:22:38;9.67;;;4.83;;
11481;SDS011;5797;51.662;6.748;2023-07-02T01:25:07;10.17;;;4.57;;
11481;SDS011;5797;51.662;6.748;2023-07-02T01:27:36;10.93;;;4.97;;
11481;SDS011;5797;51.662;6.748;2023-07-02T01:30:07;7.27;;;4.63;;
11481;SDS011;5797;51.662;6.748;2023-07-02T01:32:37;10.10;;;5.00;;
11481;SDS011;5797;51.662;6.748;2023-07-02T01:35:07;10.40;;;4.77;;
11481;SDS011;5797;51.662;6.748;2023-07-02T01:37:37;14.33;;;5.23;;
11481;SDS011;5797;51.662;6.748;2023-07-02T01:40:06;11.10;;;4.57;;
11481;SDS011;5797;51.662;6.748;2023-07-02T01:42:37;8.90;;;4.80;;
11481;SDS011;5797;51.662;6.748;2023-07-02T01:45:06;8.90;;;4.77;;
11481;SDS011;5797;51.662;6.748;2023-07-02T01:47:35;9.37;;;5.00;;
11481;SDS011;5797;51.662;6.748;2023-07-02T01:50:04;7.47;;;4.93;;
11481;SDS011;5797;51.662;6.748;2023-07-02T01:52:35;9.97;;;5.33;;
11481;SDS011;5797;51.662;6.748;2023-07-02T01:55:04;11.10;;;5.37;;
11481;SDS011;5797;51.662;6.748;2023-07-02T01:57:33;14.13;;;5.00;;
11481;SDS011;5797;51.662;6.748;2023-07-02T02:00:01;10.87;;;5.63;;
11481;SDS011;5797;51.662;6.748;2023-07-02T02:02:41;11.70;;;5.20;;
11481;SDS011;5797;51.662;6.748;2023-07-02T02:05:10;13.23;;;5.00;;
11481;SDS011;5797;51.662;6.748;2023-07-02T02:07:41;10.80;;;5.37;;
11481;SDS011;5797;51.662;6.748;2023-07-02T02:10:09;15.00;;;5.00;;
11481;SDS011;5797;51.662;6.748;2023-07-02T02:12:38;10.10;;;5.53;;
11481;SDS011;5797;51.662;6.748;2023-07-02T02:15:07;10.90;;;5.13;;
11481;SDS011;5797;51.662;6.748;2023-07-02T02:17:35;13.40;;;6.30;;
11481;SDS011;5797;51.662;6.748;2023-07-02T02:20:05;12.33;;;5.63;;
11481;SDS011;5797;51.662;6.748;2023-07-02T02:22:35;11.03;;;5.80;;
11481;SDS011;5797;51.662;6.748;2023-07-02T02:25:06;14.10;;;5.77;;
11481;SDS011;5797;51.662;6.748;2023-07-02T02:27:35;11.60;;;5.97;;
11481;SDS011;5797;51.662;6.748;2023-07-02T02:30:04;10.67;;;5.87;;
11481;SDS011;5797;51.662;6.748;2023-07-02T02:32:35;17.37;;;6.37;;
11481;SDS011;5797;51.662;6.748;2023-07-02T02:35:05;12.30;;;6.50;;
11481;SDS011;5797;51.662;6.748;2023-07-02T02:37:35;12.90;;;6.53;;
11481;SDS011;5797;51.662;6.748;2023-07-02T02:40:08;10.70;;;5.53;;
11481;SDS011;5797;51.662;6.748;2023-07-02T02:42:38;11.70;;;5.97;;
11481;SDS011;5797;51.662;6.748;2023-07-02T02:45:07;11.90;;;6.30;;
11481;SDS011;5797;51.662;6.748;2023-07-02T02:47:36;15.30;;;6.00;;
11481;SDS011;5797;51.662;6.748;2023-07-02T02:50:05;12.13;;;6.00;;
11481;SDS011;5797;51.662;6.748;2023-07-02T02:52:36;10.63;;;5.63;;
11481;SDS011;5797;51.662;6.748;2023-07-02T02:55:05;14.23;;;5.60;;
11481;SDS011;5797;51.662;6.748;2023-07-02T02:57:37;15.83;;;6.10;;
11481;SDS011;5797;51.662;6.748;2023-07-02T03:00:06;12.67;;;5.50;;
11481;SDS011;5797;51.662;6.748;2023-07-02T03:02:36;11.60;;;4.50;;
11481;SDS011;5797;51.662;6.748;2023-07-02T03:05:05;11.90;;;5.10;;
11481;SDS011;5797;51.662;6.748;2023-07-02T03:07:35;11.43;;;5.50;;
11481;SDS011;5797;51.662;6.748;2023-07-02T03:10:03;11.33;;;4.77;;
11481;SDS011;5797;51.662;6.748;2023-07-02T03:12:34;9.40;;;4.57;;
11481;SDS011;5797;51.662;6.748;2023-07-02T03:15:03;12.23;;;5.27;;
11481;SDS011;5797;51.662;6.748;2023-07-02T03:17:32;15.10;;;5.23;;
11481;SDS011;5797;51.662;6.748;2023-07-02T03:20:00;8.57;;;4.77;;
11481;SDS011;5797;51.662;6.748;2023-07-02T03:22:29;14.77;;;5.60;;
11481;SDS011;5797;51.662;6.748;2023-07-02T03:24:57;14.30;;;5.53;;
11481;SDS011;5797;51.662;6.748;2023-07-02T03:27:26;13.80;;;5.10;;
11481;SDS011;5797;51.662;6.748;2023-07-02T03:29:55;12.80;;;5.00;;
11481;SDS011;5797;51.662;6.748;2023-07-02T03:32:25;9.70;;;5.13;;
11481;SDS011;5797;51.662;6.748;2023-07-02T03:34:53;14.10;;;5.03;;
11481;SDS011;5797;51.662;6.748;2023-07-02T03:37:22;14.63;;;5.03;;
11481;SDS011;5797;51.662;6.748;2023-07-02T03:39:50;11.30;;;5.40;;
11481;SDS011;5797;51.662;6.748;2023-07-02T03:42:19;15.47;;;5.03;;
11481;SDS011;5797;51.662;6.748;2023-07-02T03:44:47;8.40;;;4.73;;
11481;SDS011;5797;51.662;6.748;2023-07-02T03:47:17;9.10;;;4.93;;
11481;SDS011;5797;51.662;6.748;2023-07-02T03:49:47;17.93;;;4.97;;
11481;SDS011;5797;51.662;6.748;2023-07-02T03:52:15;11.70;;;5.07;;
11481;SDS011;5797;51.662;6.748;2023-07-02T03:54:44;12.00;;;4.97;;
11481;SDS011;5797;51.662;6.748;2023-07-02T03:57:12;13.30;;;4.70;;
11481;SDS011;5797;51.662;6.748;2023-07-02T03:59:40;14.23;;;5.70;;
11481;SDS011;5797;51.662;6.748;2023-07-02T04:02:09;10.37;;;5.43;;
11481;SDS011;5797;51.662;6.748;2023-07-02T04:04:39;12.13;;;4.53;;
11481;SDS011;5797;51.662;6.748;2023-07-02T04:07:07;10.83;;;5.20;;
11481;SDS011;5797;51.662;6.748;2023-07-02T04:09:36;10.73;;;5.37;;
11481;SDS011;5797;51.662;6.748;2023-07-02T04:12:05;14.03;;;5.20;;
11481;SDS011;5797;51.662;6.748;2023-07-02T04:14:34;12.27;;;5.03;;
11481;SDS011;5797;51.662;6.748;2023-07-02T04:17:03;10.93;;;4.80;;
11481;SDS011;5797;51.662;6.748;2023-07-02T04:19:32;9.73;;;4.87;;
11481;SDS011;5797;51.662;6.748;2023-07-02T04:22:02;14.43;;;5.13;;
11481;SDS011;5797;51.662;6.748;2023-07-02T04:24:31;11.97;;;5.00;;
11481;SDS011;5797;51.662;6.748;2023-07-02T04:26:59;12.40;;;5.17;;
11481;SDS011;5797;51.662;6.748;2023-07-02T04:29:39;9.23;;;4.57;;
11481;SDS011;5797;51.662;6.748;2023-07-02T04:32:08;18.87;;;5.63;;
11481;SDS011;5797;51.662;6.748;2023-07-02T04:34:36;12.10;;;5.60;;
11481;SDS011;5797;51.662;6.748;2023-07-02T04:37:08;11.23;;;5.17;;
11481;SDS011;5797;51.662;6.748;2023-07-02T04:39:37;12.97;;;5.33;;
11481;SDS011;5797;51.662;6.748;2023-07-02T04:42:06;21.03;;;5.80;;
11481;SDS011;5797;51.662;6.748;2023-07-02T04:44:36;12.43;;;6.03;;
11481;SDS011;5797;51.662;6.748;2023-07-02T04:47:05;12.30;;;5.53;;
11481;SDS011;5797;51.662;6.748;2023-07-02T04:49:33;15.70;;;6.37;;
11481;SDS011;5797;51.662;6.748;2023-07-02T04:52:02;14.30;;;6.10;;
11481;SDS011;5797;51.662;6.748;2023-07-02T04:54:32;12.77;;;6.37;;
11481;SDS011;5797;51.662;6.748;2023-07-02T04:57:01;18.03;;;7.30;;
11481;SDS011;5797;51.662;6.748;2023-07-02T04:59:29;19.80;;;7.77;;
11481;SDS011;5797;51.662;6.748;2023-07-02T05:01:58;18.27;;;8.40;;
11481;SDS011;5797;51.662;6.748;2023-07-02T05:04:26;16.23;;;8.47;;
11481;SDS011;5797;51.662;6.748;2023-07-02T05:06:54;20.77;;;8.90;;
11481;SDS011;5797;51.662;6.748;2023-07-02T05:09:23;22.90;;;9.43;;
11481;SDS011;5797;51.662;6.748;2023-07-02T05:11:52;20.20;;;9.30;;
11481;SDS011;5797;51.662;6.748;2023-07-02T05:14:21;19.57;;;9.07;;
11481;SDS011;5797;51.662;6.748;2023-07-02T05:16:50;19.73;;;9.20;;
11481;SDS011;5797;51.662;6.748;2023-07-02T05:19:18;26.07;;;10.07;;
11481;SDS011;5797;51.662;6.748;2023-07-02T05:21:47;23.90;;;10.73;;
11481;SDS011;5797;51.662;6.748;2023-07-02T05:24:15;22.17;;;9.97;;
11481;SDS011;5797;51.662;6.748;2023-07-02T05:26:43;24.67;;;9.83;;
11481;SDS011;5797;51.662;6.748;2023-07-02T05:29:13;23.60;;;10.03;;
11481;SDS011;5797;51.662;6.748;2023-07-02T05:31:42;18.93;;;8.83;;
11481;SDS011;5797;51.662;6.748;2023-07-02T05:34:10;22.70;;;9.50;;
11481;SDS011;5797;51.662;6.748;2023-07-02T05:36:39;19.00;;;9.27;;
11481;SDS011;5797;51.662;6.748;2023-07-02T05:39:07;25.00;;;10.30;;
11481;SDS011;5797;51.662;6.748;2023-07-02T05:41:35;15.80;;;8.07;;
11481;SDS011;5797;51.662;6.748;2023-07-02T05:44:04;17.93;;;9.27;;
11481;SDS011;5797;51.662;6.748;2023-07-02T05:46:34;18.60;;;8.33;;
11481;SDS011;5797;51.662;6.748;2023-07-02T05:49:02;17.70;;;8.73;;
11481;SDS011;5797;51.662;6.748;2023-07-02T05:51:32;19.63;;;8.37;;
11481;SDS011;5797;51.662;6.748;2023-07-02T05:54:01;22.70;;;8.33;;
11481;SDS011;5797;51.662;6.748;2023-07-02T05:56:29;21.67;;;9.17;;
11481;SDS011;5797;51.662;6.748;2023-07-02T05:58:57;22.10;;;9.13;;
11481;SDS011;5797;51.662;6.748;2023-07-02T06:01:26;18.23;;;9.10;;
11481;SDS011;5797;51.662;6.748;2023-07-02T06:03:56;18.67;;;9.13;;
11481;SDS011;5797;51.662;6.748;2023-07-02T06:06:24;14.60;;;7.23;;
11481;SDS011;5797;51.662;6.748;2023-07-02T06:08:53;22.20;;;7.63;;
11481;SDS011;5797;51.662;6.748;2023-07-02T06:11:21;15.37;;;6.80;;
11481;SDS011;5797;51.662;6.748;2023-07-02T06:13:49;18.03;;;7.47;;
11481;SDS011;5797;51.662;6.748;2023-07-02T06:16:18;14.60;;;6.23;;
11481;SDS011;5797;51.662;6.748;2023-07-02T06:18:46;13.43;;;7.10;;
11481;SDS011;5797;51.662;6.748;2023-07-02T06:21:17;18.17;;;7.17;;
11481;SDS011;5797;51.662;6.748;2023-07-02T06:23:46;14.93;;;6.50;;
11481;SDS011;5797;51.662;6.748;2023-07-02T06:26:15;14.87;;;6.20;;
11481;SDS011;5797;51.662;6.748;2023-07-02T06:28:44;15.60;;;5.87;;
11481;SDS011;5797;51.662;6.748;2023-07-02T06:31:12;16.87;;;7.23;;
11481;SDS011;5797;51.662;6.748;2023-07-02T06:33:41;21.37;;;7.43;;
11481;SDS011;5797;51.662;6.748;2023-07-02T06:36:10;17.13;;;7.00;;
11481;SDS011;5797;51.662;6.748;2023-07-02T06:38:43;16.33;;;6.57;;
11481;SDS011;5797;51.662;6.748;2023-07-02T06:41:11;14.33;;;6.40;;
11481;SDS011;5797;51.662;6.748;2023-07-02T06:43:41;14.43;;;6.40;;
11481;SDS011;5797;51.662;6.748;2023-07-02T06:46:12;18.10;;;7.23;;
11481;SDS011;5797;51.662;6.748;2023-07-02T06:48:41;17.67;;;6.77;;
11481;SDS011;5797;51.662;6.748;2023-07-02T06:51:10;15.90;;;7.10;;
11481;SDS011;5797;51.662;6.748;2023-07-02T06:53:44;15.20;;;7.13;;
11481;SDS011;5797;51.662;6.748;2023-07-02T06:56:12;18.27;;;6.30;;
11481;SDS011;5797;51.662;6.748;2023-07-02T06:58:41;16.60;;;6.47;;
11481;SDS011;5797;51.662;6.748;2023-07-02T07:01:10;16.37;;;6.70;;
11481;SDS011;5797;51.662;6.748;2023-07-02T07:03:39;17.23;;;6.20;;
11481;SDS011;5797;51.662;6.748;2023-07-02T07:06:08;19.57;;;7.00;;
11481;SDS011;5797;51.662;6.748;2023-07-02T07:08:37;13.90;;;6.87;;
11481;SDS011;5797;51.662;6.748;2023-07-02T07:11:07;16.90;;;7.03;;
11481;SDS011;5797;51.662;6.748;2023-07-02T07:13:36;18.30;;;6.47;;
11481;SDS011;5797;51.662;6.748;2023-07-02T07:16:04;15.23;;;7.17;;
11481;SDS011;5797;51.662;6.748;2023-07-02T07:18:33;17.70;;;6.20;;
11481;SDS011;5797;51.662;6.748;2023-07-02T07:21:01;16.37;;;6.47;;
11481;SDS011;5797;51.662;6.748;2023-07-02T07:23:30;13.83;;;6.00;;
11481;SDS011;5797;51.662;6.748;2023-07-02T07:25:58;12.77;;;6.73;;
11481;SDS011;5797;51.662;6.748;2023-07-02T07:28:29;16.63;;;7.00;;
11481;SDS011;5797;51.662;6.748;2023-07-02T07:30:57;17.73;;;7.30;;
11481;SDS011;5797;51.662;6.748;2023-07-02T07:33:26;16.43;;;6.40;;
11481;SDS011;5797;51.662;6.748;2023-07-02T07:35:54;17.27;;;6.50;;
11481;SDS011;5797;51.662;6.748;2023-07-02T07:38:22;16.87;;;6.53;;
11481;SDS011;5797;51.662;6.748;2023-07-02T07:40:51;11.70;;;6.07;;
11481;SDS011;5797;51.662;6.748;2023-07-02T07:43:19;16.03;;;6.23;;
11481;SDS011;5797;51.662;6.748;2023-07-02T07:45:49;15.17;;;6.53;;
11481;SDS011;5797;51.662;6.748;2023-07-02T07:48:18;15.60;;;6.17;;
11481;SDS011;5797;51.662;6.748;2023-07-02T07:50:46;11.67;;;6.00;;
11481;SDS011;5797;51.662;6.748;2023-07-02T07:53:15;15.20;;;6.27;;
11481;SDS011;5797;51.662;6.748;2023-07-02T07:55:43;13.63;;;5.80;;
11481;SDS011;5797;51.662;6.748;2023-07-02T07:58:12;16.37;;;6.30;;
11481;SDS011;5797;51.662;6.748;2023-07-02T08:00:40;15.23;;;6.53;;
11481;SDS011;5797;51.662;6.748;2023-07-02T08:03:10;11.60;;;6.30;;
11481;SDS011;5797;51.662;6.748;2023-07-02T08:05:39;12.93;;;5.13;;
11481;SDS011;5797;51.662;6.748;2023-07-02T08:08:07;13.50;;;5.93;;
11481;SDS011;5797;51.662;6.748;2023-07-02T08:10:36;16.73;;;5.90;;
11481;SDS011;5797;51.662;6.748;2023-07-02T08:13:04;14.37;;;5.73;;
11481;SDS011;5797;51.662;6.748;2023-07-02T08:15:32;16.87;;;6.00;;
11481;SDS011;5797;51.662;6.748;2023-07-02T08:18:01;16.17;;;5.73;;
11481;SDS011;5797;51.662;6.748;2023-07-02T08:20:32;17.30;;;5.93;;
11481;SDS011;5797;51.662;6.748;2023-07-02T08:23:00;10.33;;;5.17;;
11481;SDS011;5797;51.662;6.748;2023-07-02T08:25:28;11.50;;;5.30;;
11481;SDS011;5797;51.662;6.748;2023-07-02T08:27:57;9.47;;;4.90;;
11481;SDS011;5797;51.662;6.748;2023-07-02T08:30:26;10.87;;;5.03;;
11481;SDS011;5797;51.662;6.748;2023-07-02T08:32:54;7.10;;;4.60;;
11481;SDS011;5797;51.662;6.748;2023-07-02T08:35:22;9.93;;;4.57;;
11481;SDS011;5797;51.662;6.748;2023-07-02T08:37:52;8.17;;;4.20;;
11481;SDS011;5797;51.662;6.748;2023-07-02T08:40:21;9.97;;;4.63;;
11481;SDS011;5797;51.662;6.748;2023-07-02T08:42:49;12.43;;;4.93;;
11481;SDS011;5797;51.662;6.748;2023-07-02T08:45:17;13.17;;;4.87;;
11481;SDS011;5797;51.662;6.748;2023-07-02T08:47:46;9.83;;;4.80;;
11481;SDS011;5797;51.662;6.748;2023-07-02T08:50:16;9.23;;;4.53;;
11481;SDS011;5797;51.662;6.748;2023-07-02T08:52:45;10.33;;;4.73;;
11481;SDS011;5797;51.662;6.748;2023-07-02T08:55:14;8.37;;;4.40;;
11481;SDS011;5797;51.662;6.748;2023-07-02T08:58:56;7.87;;;4.17;;
11481;SDS011;5797;51.662;6.748;2023-07-02T09:01:25;7.70;;;4.40;;
11481;SDS011;5797;51.662;6.748;2023-07-02T09:03:58;8.57;;;4.13;;
11481;SDS011;5797;51.662;6.748;2023-07-02T09:06:27;10.30;;;4.43;;
11481;SDS011;5797;51.662;6.748;2023-07-02T09:09:03;10.33;;;4.90;;
11481;SDS011;5797;51.662;6.748;2023-07-02T09:11:34;9.87;;;4.37;;
11481;SDS011;5797;51.662;6.748;2023-07-02T09:14:03;9.50;;;4.77;;
11481;SDS011;5797;51.662;6.748;2023-07-02T09:20:41;10.57;;;4.73;;
11481;SDS011;5797;51.662;6.748;2023-07-02T09:23:09;9.83;;;4.30;;
11481;SDS011;5797;51.662;6.748;2023-07-02T09:25:38;10.03;;;5.03;;
11481;SDS011;5797;51.662;6.748;2023-07-02T09:28:18;12.70;;;5.20;;
11481;SDS011;5797;51.662;6.748;2023-07-02T09:30:51;8.00;;;5.00;;
11481;SDS011;5797;51.662;6.748;2023-07-02T09:33:20;10.63;;;5.40;;
11481;SDS011;5797;51.662;6.748;2023-07-02T09:35:49;16.53;;;5.33;;
11481;SDS011;5797;51.662;6.748;2023-07-02T09:38:19;10.47;;;4.23;;
11481;SDS011;5797;51.662;6.748;2023-07-02T09:40:48;12.23;;;5.43;;
11481;SDS011;5797;51.662;6.748;2023-07-02T09:43:19;11.17;;;5.20;;
11481;SDS011;5797;51.662;6.748;2023-07-02T09:45:48;8.07;;;5.07;;
11481;SDS011;5797;51.662;6.748;2023-07-02T09:48:18;12.43;;;5.97;;
11481;SDS011;5797;51.662;6.748;2023-07-02T09:50:50;10.67;;;4.87;;
11481;SDS011;5797;51.662;6.748;2023-07-02T09:53:19;8.63;;;5.23;;
11481;SDS011;5797;51.662;6.748;2023-07-02T09:55:48;11.13;;;5.40;;
11481;SDS011;5797;51.662;6.748;2023-07-02T09:58:17;9.00;;;4.90;;
11481;SDS011;5797;51.662;6.748;2023-07-02T10:00:46;12.53;;;5.03;;
11481;SDS011;5797;51.662;6.748;2023-07-02T10:03:15;12.47;;;5.07;;
11481;SDS011;5797;51.662;6.748;2023-07-02T10:05:44;9.60;;;4.43;;
11481;SDS011;5797;51.662;6.748;2023-07-02T10:08:12;10.43;;;5.23;;
11481;SDS011;5797;51.662;6.748;2023-07-02T10:10:43;8.03;;;4.70;;
11481;SDS011;5797;51.662;6.748;2023-07-02T10:13:12;8.93;;;4.37;;
11481;SDS011;5797;51.662;6.748;2023-07-02T10:15:40;10.00;;;5.17;;
11481;SDS011;5797;51.662;6.748;2023-07-02T10:18:10;13.73;;;5.10;;
11481;SDS011;5797;51.662;6.748;2023-07-02T10:20:39;8.70;;;4.33;;
11481;SDS011;5797;51.662;6.748;2023-07-02T10:23:09;8.43;;;4.47;;
11481;SDS011;5797;51.662;6.748;2023-07-02T10:25:38;9.53;;;3.93;;
11481;SDS011;5797;51.662;6.748;2023-07-02T10:28:13;9.40;;;4.45;;
11481;SDS011;5797;51.662;6.748;2023-07-02T10:30:42;11.40;;;5.38;;
11481;SDS011;5797;51.662;6.748;2023-07-02T10:33:13;8.68;;;4.20;;
11481;SDS011;5797;51.662;6.748;2023-07-02T10:35:42;10.32;;;4.43;;
11481;SDS011;5797;51.662;6.748;2023-07-02T10:38:14;11.60;;;4.65;;
11481;SDS011;5797;51.662;6.748;2023-07-02T10:40:43;9.50;;;4.57;;
11481;SDS011;5797;51.662;6.748;2023-07-02T10:43:11;9.68;;;4.68;;
11481;SDS011;5797;51.662;6.748;2023-07-02T10:45:40;10.95;;;4.53;;
11481;SDS011;5797;51.662;6.748;2023-07-02T10:48:08;7.50;;;4.53;;
11481;SDS011;5797;51.662;6.748;2023-07-02T10:50:39;10.88;;;4.60;;
11481;SDS011;5797;51.662;6.748;2023-07-02T10:53:14;11.73;;;4.88;;
11481;SDS011;5797;51.662;6.748;2023-07-02T10:55:43;9.43;;;4.18;;
11481;SDS011;5797;51.662;6.748;2023-07-02T10:58:12;9.50;;;4.50;;
11481;SDS011;5797;51.662;6.748;2023-07-02T11:00:44;10.38;;;4.47;;
11481;SDS011;5797;51.662;6.748;2023-07-02T11:03:17;8.70;;;4.57;;
11481;SDS011;5797;51.662;6.748;2023-07-02T11:05:48;8.68;;;4.22;;
11481;SDS011;5797;51.662;6.748;2023-07-02T11:08:18;8.75;;;4.72;;
11481;SDS011;5797;51.662;6.748;2023-07-02T11:10:48;11.57;;;4.65;;
11481;SDS011;5797;51.662;6.748;2023-07-02T11:13:18;8.63;;;4.68;;
11481;SDS011;5797;51.662;6.748;2023-07-02T11:15:47;7.03;;;4.28;;
11481;SDS011;5797;51.662;6.748;2023-07-02T11:18:16;10.35;;;4.68;;
11481;SDS011;5797;51.662;6.748;2023-07-02T11:20:49;9.30;;;4.68;;
11481;SDS011;5797;51.662;6.748;2023-07-02T11:23:18;10.55;;;4.47;;
11481;SDS011;5797;51.662;6.748;2023-07-02T11:25:55;10.35;;;4.80;;
11481;SDS011;5797;51.662;6.748;2023-07-02T11:28:25;8.63;;;4.50;;
11481;SDS011;5797;51.662;6.748;2023-07-02T11:30:54;9.43;;;5.18;;
11481;SDS011;5797;51.662;6.748;2023-07-02T11:33:32;9.45;;;4.82;;
11481;SDS011;5797;51.662;6.748;2023-07-02T11:36:03;11.43;;;5.30;;
11481;SDS011;5797;51.662;6.748;2023-07-02T11:38:32;10.75;;;4.53;;
11481;SDS011;5797;51.662;6.748;2023-07-02T11:41:02;8.68;;;4.70;;
11481;SDS011;5797;51.662;6.748;2023-07-02T11:43:31;9.57;;;4.20;;
11481;SDS011;5797;51.662;6.748;2023-07-02T11:46:01;6.63;;;4.50;;
11481;SDS011;5797;51.662;6.748;2023-07-02T11:48:29;6.95;;;4.20;;
11481;SDS011;5797;51.662;6.748;2023-07-02T11:50:57;9.57;;;5.13;;
11481;SDS011;5797;51.662;6.748;2023-07-02T11:53:27;12.02;;;5.40;;
11481;SDS011;5797;51.662;6.748;2023-07-02T11:55:56;11.50;;;4.53;;
11481;SDS011;5797;51.662;6.748;2023-07-02T11:58:25;10.82;;;4.75;;
11481;SDS011;5797;51.662;6.748;2023-07-02T12:00:54;9.73;;;4.60;;
11481;SDS011;5797;51.662;6.748;2023-07-02T12:03:23;6.93;;;4.63;;
11481;SDS011;5797;51.662;6.748;2023-07-02T12:05:51;10.82;;;4.90;;
11481;SDS011;5797;51.662;6.748;2023-07-02T12:08:20;9.00;;;4.90;;
11481;SDS011;5797;51.662;6.748;2023-07-02T12:10:50;10.48;;;4.75;;
11481;SDS011;5797;51.662;6.748;2023-07-02T12:13:18;9.48;;;5.05;;
11481;SDS011;5797;51.662;6.748;2023-07-02T12:15:47;9.07;;;4.57;;
11481;SDS011;5797;51.662;6.748;2023-07-02T12:18:18;12.38;;;4.57;;
11481;SDS011;5797;51.662;6.748;2023-07-02T12:20:46;7.85;;;4.60;;
11481;SDS011;5797;51.662;6.748;2023-07-02T12:23:15;9.30;;;5.00;;
11481;SDS011;5797;51.662;6.748;2023-07-02T12:25:43;10.95;;;5.00;;
11481;SDS011;5797;51.662;6.748;2023-07-02T12:28:14;13.23;;;4.75;;
11481;SDS011;5797;51.662;6.748;2023-07-02T12:30:42;10.48;;;4.95;;
11481;SDS011;5797;51.662;6.748;2023-07-02T12:33:11;8.75;;;4.60;;
11481;SDS011;5797;51.662;6.748;2023-07-02T12:35:41;13.52;;;4.75;;
11481;SDS011;5797;51.662;6.748;2023-07-02T12:38:09;11.15;;;4.75;;
11481;SDS011;5797;51.662;6.748;2023-07-02T12:40:38;10.45;;;4.80;;
11481;SDS011;5797;51.662;6.748;2023-07-02T12:43:06;10.32;;;5.47;;
11481;SDS011;5797;51.662;6.748;2023-07-02T12:45:36;8.90;;;4.30;;
11481;SDS011;5797;51.662;6.748;2023-07-02T12:48:05;12.63;;;5.63;;
11481;SDS011;5797;51.662;6.748;2023-07-02T12:50:33;9.88;;;4.90;;
11481;SDS011;5797;51.662;6.748;2023-07-02T12:53:02;11.00;;;5.18;;
11481;SDS011;5797;51.662;6.748;2023-07-02T12:55:30;14.05;;;5.32;;
11481;SDS011;5797;51.662;6.748;2023-07-02T12:57:59;11.02;;;5.25;;
11481;SDS011;5797;51.662;6.748;2023-07-02T13:00:27;11.88;;;5.57;;
11481;SDS011;5797;51.662;6.748;2023-07-02T13:02:57;11.15;;;4.70;;
11481;SDS011;5797;51.662;6.748;2023-07-02T13:05:31;11.77;;;5.25;;
11481;SDS011;5797;51.662;6.748;2023-07-02T13:07:59;6.28;;;4.18;;
11481;SDS011;5797;51.662;6.748;2023-07-02T13:10:28;8.82;;;4.70;;
11481;SDS011;5797;51.662;6.748;2023-07-02T13:12:57;11.68;;;5.18;;
11481;SDS011;5797;51.662;6.748;2023-07-02T13:15:32;14.63;;;5.15;;
11481;SDS011;5797;51.662;6.748;2023-07-02T13:18:03;10.50;;;5.20;;
11481;SDS011;5797;51.662;6.748;2023-07-02T13:20:31;8.50;;;4.80;;
11481;SDS011;5797;51.662;6.748;2023-07-02T13:23:00;11.55;;;5.63;;
11481;SDS011;5797;51.662;6.748;2023-07-02T13:25:28;7.82;;;5.15;;
11481;SDS011;5797;51.662;6.748;2023-07-02T13:27:57;11.73;;;5.35;;
11481;SDS011;5797;51.662;6.748;2023-07-02T13:30:25;9.15;;;5.40;;
11481;SDS011;5797;51.662;6.748;2023-07-02T13:32:55;11.05;;;5.78;;
11481;SDS011;5797;51.662;6.748;2023-07-02T13:35:25;11.55;;;5.75;;
11481;SDS011;5797;51.662;6.748;2023-07-02T13:37:54;12.15;;;4.93;;
11481;SDS011;5797;51.662;6.748;2023-07-02T13:40:23;10.93;;;5.68;;
11481;SDS011;5797;51.662;6.748;2023-07-02T13:42:51;11.23;;;5.80;;
11481;SDS011;5797;51.662;6.748;2023-07-02T13:45:20;18.45;;;5.55;;
11481;SDS011;5797;51.662;6.748;2023-07-02T13:47:48;14.40;;;6.20;;
11481;SDS011;5797;51.662;6.748;2023-07-02T13:50:17;8.15;;;5.28;;
11481;SDS011;5797;51.662;6.748;2023-07-02T13:52:46;12.88;;;5.32;;
11481;SDS011;5797;51.662;6.748;2023-07-02T13:55:16;12.68;;;5.85;;
11481;SDS011;5797;51.662;6.748;2023-07-02T13:57:44;11.27;;;5.60;;
11481;SDS011;5797;51.662;6.748;2023-07-02T14:00:15;13.10;;;6.00;;
11481;SDS011;5797;51.662;6.748;2023-07-02T14:02:43;11.35;;;5.57;;
11481;SDS011;5797;51.662;6.748;2023-07-02T14:05:12;13.05;;;5.35;;
11481;SDS011;5797;51.662;6.748;2023-07-02T14:07:40;13.55;;;5.72;;
11481;SDS011;5797;51.662;6.748;2023-07-02T14:10:09;14.93;;;6.25;;
11481;SDS011;5797;51.662;6.748;2023-07-02T14:12:39;14.45;;;5.40;;
11481;SDS011;5797;51.662;6.748;2023-07-02T14:15:08;13.60;;;5.63;;
11481;SDS011;5797;51.662;6.748;2023-07-02T14:17:38;11.05;;;5.38;;
11481;SDS011;5797;51.662;6.748;2023-07-02T14:20:07;10.95;;;5.35;;
11481;SDS011;5797;51.662;6.748;2023-07-02T14:22:36;14.35;;;4.43;;
11481;SDS011;5797;51.662;6.748;2023-07-02T14:25:05;15.55;;;4.80;;
11481;SDS011;5797;51.662;6.748;2023-07-02T14:27:34;10.23;;;4.80;;
11481;SDS011;5797;51.662;6.748;2023-07-02T14:30:03;11.52;;;5.60;;
11481;SDS011;5797;51.662;6.748;2023-07-02T14:32:34;10.30;;;5.10;;
11481;SDS011;5797;51.662;6.748;2023-07-02T14:35:05;8.98;;;4.75;;
11481;SDS011;5797;51.662;6.748;2023-07-02T14:37:33;8.50;;;4.78;;
11481;SDS011;5797;51.662;6.748;2023-07-02T14:40:02;11.40;;;4.78;;
11481;SDS011;5797;51.662;6.748;2023-07-02T14:42:33;12.05;;;5.00;;
11481;SDS011;5797;51.662;6.748;2023-07-02T14:45:01;13.80;;;5.05;;
11481;SDS011;5797;51.662;6.748;2023-07-02T14:47:30;9.48;;;4.60;;
11481;SDS011;5797;51.662;6.748;2023-07-02T14:49:59;9.30;;;5.40;;
11481;SDS011;5797;51.662;6.748;2023-07-02T14:52:28;10.65;;;4.60;;
11481;SDS011;5797;51.662;6.748;2023-07-02T14:54:57;10.13;;;4.93;;
11481;SDS011;5797;51.662;6.748;2023-07-02T14:57:27;10.60;;;4.82;;
11481;SDS011;5797;51.662;6.748;2023-07-02T14:59:56;12.55;;;5.07;;
11481;SDS011;5797;51.662;6.748;2023-07-02T15:02:24;10.77;;;4.68;;
11481;SDS011;5797;51.662;6.748;2023-07-02T15:04:53;8.10;;;4.40;;
11481;SDS011;5797;51.662;6.748;2023-07-02T15:07:21;10.27;;;4.32;;